EGGW/LTN METAR and TAF weather

Enter ICAO airport designator
Station Type Date Time Source
EGGW METAR 2018/01/17 06:50 UTC NOAA

EGGW 170650Z AUTO 26020KT 9999 FEW034 02/M02 Q1000


Station Type Date Time Source
EGGW Decoded METAR 2018/01/17 06:50 UTC NOAA

Luton Airport , United Kingdom (EGGW) 51-52N 000-22W
Jan 17, 2018 - 01:50 AM EST / 2018.01.17 0650 UTC
Wind: from the W (260 degrees) at 23 MPH (20 KT):0
Visibility: greater than 7 mile(s):0
Sky conditions: mostly clear
Temperature: 35 F (2 C)
Windchill: 23 F (-5 C):1
Dew Point: 28 F (-2 C)
Relative Humidity: 74%
Pressure (altimeter): 29.53 in. Hg (1000 hPa)
ob: EGGW 170650Z AUTO 26020KT 9999 FEW034 02/M02 Q1000
cycle: 7

Station Type Date Time Source
EGGW TAF 2018/01/17 06:15 UTC NOAA

TAF EGGW 170458Z 1706/1806 26014KT 9999 FEW025
TEMPO 1706/1716 26020G30KT
BECMG 1721/1724 20020G30KT
TEMPO 1721/1801 7000 RA BKN012 PROB30
TEMPO 1722/1724 19025G40KT 3000 +RA BKN006
BECMG 1801/1803 25025G40KT


Example: see airport list